Delta, OH

5:27 PM EDT on May 04, 2015 (GMT -0400)
Village of Swanton | | Change Station
CLOSE
Current Station
Personal Weather Station
Location: Swanton, OH
Elevation: 692 ft
Nearby Weather Stations

Elev 692 ft 41.60 °N, 83.89 °W | Updated 5 seconds ago

Partly Cloudy
Partly Cloudy
76.8 °F
Feels Like 78 °F
N
4.0
Wind Variable Wind from West
Gusts 7.6 mph

Today
High -- | Low -- °F
--% Chance of Precip.
Yesterday
High -- | Low -- °F
Precip. -- in
6:29 AM 8:36 PM
Waxing Gibbous, 99% visible
Pressure 30.12 in
Visibility 10.0 miles
Clouds Few 3300 ft
Few 4600 ft
Scattered Clouds 7000 ft
Heat Index 78 °F
Dew Point 48 °F
Humidity 36%
Rainfall 0.04 in
Snow Depth Not available.
UV 4 out of 12
Pollen 10.20 out of 12
Air Quality Not available.
Flu Activity Regional
METAR KUSE 042115Z AUTO 24009G14KT 10SM FEW033 FEW046 SCT070 24/16 A3012 RMK AO2

More Conditions Fewer Conditions

Pressure 30.12 in
Visibility 10.0 miles
Clouds Few 3300 ft
Few 4600 ft
Scattered Clouds 7000 ft
Heat Index 78 °F
Dew Point 48 °F
Humidity 36%
Rainfall 0.04 in
Snow Depth Not available.
UV 4 out of 12
Pollen 10.20 out of 12
Air Quality Not available.
Flu Activity Regional
METAR KUSE 042115Z AUTO 24009G14KT 10SM FEW033 FEW046 SCT070 24/16 A3012 RMK AO2

More Conditions Fewer Conditions

Nepal has a long way to go to dig out and rebuild from a devastating earthquake. We have teamed up with several charities and organizations to make contributing to the relief effort as easy as possible.
How you can help: Portlight Strategies | Red Cross

10-Day Weather Forecast

Almanac

Astronomy

May. 04, 2015 Rise Set
Actual Time
Civil Twilight
Nautical Twilight
Astronomical Twilight
Moon
Length of Visible Light
Length of Day
Tomorrow will be .
, % of the Moon is Illuminated

Today's Extremes

State Highs State Lows

Community

WunderPhotos

Upload Photos

1,818,703 photos uploaded!

WunderBlogs® & News

Nearby

Air Quality

  Air Quality AQ Index Pollutant
Not available.

Snow Depth

Station Depth Elevation

Earthquake Activity

City Distance Mag. Time & Date
Minimum magnitude displayed is 2.5.

Coastal Water Temperatures

Place Temperature

Stations

Nearby Weather Stations

Station Location Temp. Windchill Dew Point Humidity Wind Precip. Elev Updated Type